Time;durP1;ratioP1;P1;durP2;ratioP2;P2;SDS_P1;SDS_P2;PMS_P1;PMS_P2;Temp;Humidity;BMP_temperature;BMP_pressure;BME280_temperature;BME280_humidity;BME280_pressure;Samples;Min_cycle;Max_cycle;Signal;HPM_P1;HPM_P2
2022/12/31 00:00:15;;;;;;;14.15;2.33;;;;;;;;;;5035261;28;20054;-79
2022/12/31 00:02:41;;;;;;;16.52;2.28;;;;;;;;;;5035246;28;20036;-79
2022/12/31 00:05:08;;;;;;;19.17;2.63;;;;;;;;;;5034784;28;20357;-79
2022/12/31 00:07:34;;;;;;;11.55;2.25;;;;;;;;;;5035949;28;20025;-79
2022/12/31 00:10:01;;;;;;;19.60;2.22;;;;;;;;;;5037807;28;20475;-79
2022/12/31 00:12:26;;;;;;;17.13;4.35;;;;;;;;;;5038979;28;20033;-79
2022/12/31 00:14:52;;;;;;;14.05;1.88;;;;;;;;;;5040168;28;20029;-79
2022/12/31 00:17:18;;;;;;;16.23;2.60;;;;;;;;;;5038842;28;20033;-79
2022/12/31 00:19:44;;;;;;;19.63;2.30;;;;;;;;;;5041607;28;20067;-79
2022/12/31 00:22:10;;;;;;;18.73;2.05;;;;;;;;;;5041809;28;20025;-79
2022/12/31 00:24:36;;;;;;;16.40;2.17;;;;;;;;;;5040697;28;20040;-79
2022/12/31 00:27:02;;;;;;;16.13;2.22;;;;;;;;;;5038986;28;20112;-79
2022/12/31 00:29:28;;;;;;;21.88;2.20;;;;;;;;;;5038917;28;20032;-79
2022/12/31 00:31:54;;;;;;;20.08;2.58;;;;;;;;;;5021234;28;20457;-79
2022/12/31 00:34:20;;;;;;;21.40;2.53;;;;;;;;;;5038361;28;20026;-79
2022/12/31 00:36:46;;;;;;;20.70;2.33;;;;;;;;;;5038734;28;20034;-79
2022/12/31 00:39:12;;;;;;;22.15;3.10;;;;;;;;;;5038491;28;20079;-79
2022/12/31 00:41:39;;;;;;;18.67;2.47;;;;;;;;;;5037762;28;20372;-79
2022/12/31 00:44:05;;;;;;;23.17;3.45;;;;;;;;;;5038526;28;20065;-79
2022/12/31 00:46:31;;;;;;;20.45;2.45;;;;;;;;;;5038155;28;20029;-79
2022/12/31 00:48:57;;;;;;;20.33;3.33;;;;;;;;;;5037847;28;20033;-79
2022/12/31 00:51:26;;;;;;;16.58;2.80;;;;;;;;;;5037457;28;20025;-79
2022/12/31 00:53:52;;;;;;;24.65;3.53;;;;;;;;;;5037478;28;20104;-79
2022/12/31 00:56:19;;;;;;;17.80;3.03;;;;;;;;;;5019787;28;20099;-79
2022/12/31 00:58:45;;;;;;;21.23;3.03;;;;;;;;;;5037292;28;20021;-79
2022/12/31 01:01:11;;;;;;;20.70;3.55;;;;;;;;;;5037575;28;20495;-79
2022/12/31 01:03:37;;;;;;;26.58;2.90;;;;;;;;;;5037674;28;20026;-79
2022/12/31 01:06:04;;;;;;;14.68;2.35;;;;;;;;;;5038448;28;20396;-79
2022/12/31 01:08:29;;;;;;;20.77;2.33;;;;;;;;;;5038458;28;20357;-79
2022/12/31 01:13:40;;;;;;;18.67;2.15;;;;;;;;;;5038498;28;20412;-79
2022/12/31 01:16:10;;;;;;;18.38;2.90;;;;;;;;;;5039024;28;20033;-79
2022/12/31 01:18:36;;;;;;;17.02;2.60;;;;;;;;;;5038111;28;20041;-79
2022/12/31 01:21:03;;;;;;;18.67;2.70;;;;;;;;;;5037590;28;20040;-79
2022/12/31 01:23:30;;;;;;;17.17;2.55;;;;;;;;;;5037772;28;20026;-79
2022/12/31 01:25:58;;;;;;;19.92;2.40;;;;;;;;;;5036956;28;20029;-79
2022/12/31 01:28:24;;;;;;;16.77;2.88;;;;;;;;;;5036075;28;20037;-79
2022/12/31 01:30:50;;;;;;;12.00;1.73;;;;;;;;;;5037641;28;20033;-79
2022/12/31 01:33:16;;;;;;;16.13;2.22;;;;;;;;;;5039952;28;20081;-79
2022/12/31 01:35:44;;;;;;;14.95;2.22;;;;;;;;;;5045283;28;20435;-79
2022/12/31 01:38:10;;;;;;;11.65;1.92;;;;;;;;;;5043833;28;20040;-79
2022/12/31 01:40:37;;;;;;;10.13;1.92;;;;;;;;;;5041811;28;20053;-79
2022/12/31 01:43:10;;;;;;;12.85;1.88;;;;;;;;;;5041469;28;20025;-79
2022/12/31 01:45:36;;;;;;;16.92;3.00;;;;;;;;;;5039473;28;20033;-79
2022/12/31 01:48:02;;;;;;;13.30;1.90;;;;;;;;;;5038778;28;20034;-79
2022/12/31 01:50:29;;;;;;;16.77;2.17;;;;;;;;;;5020741;28;20030;-79
2022/12/31 01:52:57;;;;;;;12.52;2.80;;;;;;;;;;5038778;28;20025;-79
2022/12/31 01:55:23;;;;;;;13.52;2.83;;;;;;;;;;5037322;28;20051;-79
2022/12/31 01:57:52;;;;;;;11.95;2.15;;;;;;;;;;5038893;28;20523;-79
2022/12/31 02:00:18;;;;;;;11.82;1.55;;;;;;;;;;5037750;28;20506;-79
2022/12/31 02:02:44;;;;;;;11.57;1.50;;;;;;;;;;5038182;28;20392;-79
2022/12/31 02:05:13;;;;;;;8.75;1.90;;;;;;;;;;5037227;28;20078;-79
2022/12/31 02:07:39;;;;;;;11.05;1.55;;;;;;;;;;5020136;28;20364;-79
2022/12/31 02:10:05;;;;;;;12.80;1.75;;;;;;;;;;5037115;28;20098;-79
2022/12/31 02:12:31;;;;;;;9.90;1.90;;;;;;;;;;5036244;28;20029;-79
2022/12/31 02:14:57;;;;;;;8.25;1.63;;;;;;;;;;5039422;28;20028;-79
2022/12/31 02:17:29;;;;;;;10.98;1.40;;;;;;;;;;5037697;28;20037;-79
2022/12/31 02:20:07;;;;;;;12.70;1.55;;;;;;;;;;5037887;28;20025;-79
2022/12/31 02:22:45;;;;;;;9.77;1.77;;;;;;;;;;5037000;28;20083;-79
2022/12/31 02:25:30;;;;;;;12.40;2.42;;;;;;;;;;5037421;28;20033;-79
2022/12/31 02:28:15;;;;;;;14.15;1.83;;;;;;;;;;5017188;28;20038;-79
2022/12/31 02:30:41;;;;;;;9.68;1.80;;;;;;;;;;5017566;28;20040;-79
2022/12/31 02:33:23;;;;;;;13.13;2.08;;;;;;;;;;5016573;28;20038;-79
2022/12/31 02:35:57;;;;;;;12.55;2.05;;;;;;;;;;5018907;28;20071;-80
2022/12/31 02:38:26;;;;;;;14.05;2.30;;;;;;;;;;5017712;28;20030;-80
2022/12/31 02:40:55;;;;;;;10.35;2.15;;;;;;;;;;5017344;28;20033;-80
2022/12/31 02:43:21;;;;;;;10.32;2.50;;;;;;;;;;5017525;28;20022;-79
2022/12/31 02:45:50;;;;;;;10.40;2.35;;;;;;;;;;5017502;28;20022;-79
2022/12/31 02:48:22;;;;;;;14.25;2.30;;;;;;;;;;5017025;28;20033;-79
2022/12/31 02:50:54;;;;;;;10.98;2.08;;;;;;;;;;5016983;28;20029;-79
2022/12/31 02:53:38;;;;;;;11.68;2.15;;;;;;;;;;5017015;28;20030;-79
2022/12/31 02:56:12;;;;;;;12.88;2.33;;;;;;;;;;5016481;28;20057;-79
2022/12/31 03:04:30;;;;;;;11.48;1.95;;;;;;;;;;5020444;28;20028;-79
2022/12/31 03:06:57;;;;;;;11.65;1.90;;;;;;;;;;5018547;28;20034;-79
2022/12/31 03:09:23;;;;;;;9.85;1.85;;;;;;;;;;5017801;28;20025;-79
2022/12/31 03:14:33;;;;;;;8.10;1.30;;;;;;;;;;5020538;28;20029;-79
2022/12/31 03:16:59;;;;;;;8.45;2.05;;;;;;;;;;5017453;28;20034;-79
2022/12/31 03:22:27;;;;;;;11.70;1.63;;;;;;;;;;5018378;28;20029;-79
2022/12/31 03:27:41;;;;;;;11.73;1.52;;;;;;;;;;5015990;28;20091;-79
2022/12/31 03:30:07;;;;;;;12.25;1.50;;;;;;;;;;5014998;28;20088;-79
2022/12/31 03:32:33;;;;;;;8.75;1.30;;;;;;;;;;5015037;28;20102;-79
2022/12/31 03:34:59;;;;;;;10.50;2.58;;;;;;;;;;5016965;28;20025;-79
2022/12/31 03:37:25;;;;;;;15.45;1.52;;;;;;;;;;5015500;28;20037;-79
2022/12/31 03:39:51;;;;;;;9.98;1.60;;;;;;;;;;5015875;28;20026;-79
2022/12/31 03:42:17;;;;;;;9.75;1.30;;;;;;;;;;5015628;28;20108;-79
2022/12/31 03:44:43;;;;;;;6.97;1.98;;;;;;;;;;5015789;28;20393;-79
2022/12/31 03:47:09;;;;;;;7.45;1.30;;;;;;;;;;5020831;28;20056;-79
2022/12/31 03:49:35;;;;;;;12.10;1.88;;;;;;;;;;5021910;28;20033;-79
2022/12/31 03:52:02;;;;;;;12.27;2.10;;;;;;;;;;5020638;28;20029;-79
2022/12/31 03:54:28;;;;;;;8.77;1.70;;;;;;;;;;5038532;28;20079;-79
2022/12/31 03:56:54;;;;;;;11.88;1.90;;;;;;;;;;5039991;28;20471;-79
2022/12/31 03:59:20;;;;;;;13.95;2.58;;;;;;;;;;5037992;28;20081;-79
2022/12/31 04:01:46;;;;;;;8.63;1.73;;;;;;;;;;5037206;28;20377;-79
2022/12/31 04:04:12;;;;;;;9.25;1.30;;;;;;;;;;5037085;28;20096;-79
2022/12/31 04:06:38;;;;;;;8.13;1.35;;;;;;;;;;5040169;28;20030;-79
2022/12/31 04:09:04;;;;;;;10.13;1.48;;;;;;;;;;5039178;28;20096;-79
2022/12/31 04:11:42;;;;;;;14.50;1.67;;;;;;;;;;5038718;28;20021;-79
2022/12/31 04:14:08;;;;;;;7.50;1.20;;;;;;;;;;5038353;28;20025;-79
2022/12/31 04:16:34;;;;;;;8.60;1.17;;;;;;;;;;5037883;28;20384;-79
2022/12/31 04:19:00;;;;;;;4.07;1.02;;;;;;;;;;5038179;28;20456;-79
2022/12/31 04:21:26;;;;;;;6.75;1.33;;;;;;;;;;5037826;28;20109;-79
2022/12/31 04:23:52;;;;;;;9.38;1.50;;;;;;;;;;5038264;28;20105;-79
2022/12/31 04:26:18;;;;;;;6.30;0.90;;;;;;;;;;5038257;28;20456;-79
2022/12/31 04:28:44;;;;;;;11.27;2.08;;;;;;;;;;5038324;28;20038;-79
2022/12/31 04:31:10;;;;;;;5.80;1.17;;;;;;;;;;5038419;28;20101;-79
2022/12/31 04:33:36;;;;;;;10.80;1.40;;;;;;;;;;5038118;28;20084;-79
2022/12/31 04:36:03;;;;;;;9.90;1.60;;;;;;;;;;5036776;28;20430;-79
2022/12/31 04:38:29;;;;;;;10.18;1.80;;;;;;;;;;5036362;28;20029;-79
2022/12/31 04:43:40;;;;;;;8.45;1.08;;;;;;;;;;5036871;28;20037;-79
2022/12/31 04:46:06;;;;;;;8.20;1.27;;;;;;;;;;5039768;28;20499;-79
2022/12/31 04:48:33;;;;;;;11.48;1.70;;;;;;;;;;5037101;28;20025;-79
2022/12/31 04:50:59;;;;;;;10.07;1.70;;;;;;;;;;5038054;28;20037;-79
2022/12/31 04:53:25;;;;;;;7.25;1.92;;;;;;;;;;5037894;28;20036;-79
2022/12/31 04:55:51;;;;;;;13.73;2.22;;;;;;;;;;5037154;28;20049;-79
2022/12/31 04:58:17;;;;;;;8.70;1.83;;;;;;;;;;5037347;28;20061;-80
2022/12/31 05:00:44;;;;;;;12.23;2.47;;;;;;;;;;4993115;28;1294025;-80
2022/12/31 05:03:11;;;;;;;10.65;2.00;;;;;;;;;;5038618;28;20025;-80
2022/12/31 05:05:41;;;;;;;10.95;2.60;;;;;;;;;;5037767;28;20028;-80
2022/12/31 05:08:08;;;;;;;13.38;3.20;;;;;;;;;;5038455;28;20036;-80
2022/12/31 05:10:34;;;;;;;14.25;3.17;;;;;;;;;;5037678;28;20017;-80
2022/12/31 05:13:00;;;;;;;13.10;3.30;;;;;;;;;;5037792;28;20057;-80
2022/12/31 05:15:26;;;;;;;9.70;3.80;;;;;;;;;;5037433;28;20537;-80
2022/12/31 05:17:52;;;;;;;10.27;3.95;;;;;;;;;;5037628;28;20032;-80
2022/12/31 05:20:18;;;;;;;15.05;4.55;;;;;;;;;;5037853;28;20460;-80
2022/12/31 05:22:44;;;;;;;9.77;3.95;;;;;;;;;;5037562;28;20079;-80
2022/12/31 05:25:10;;;;;;;13.40;4.53;;;;;;;;;;5038302;28;20027;-80
2022/12/31 05:27:36;;;;;;;11.88;5.00;;;;;;;;;;5037829;28;20039;-80
2022/12/31 05:30:03;;;;;;;17.55;6.30;;;;;;;;;;5036760;28;20032;-81
2022/12/31 05:32:29;;;;;;;18.55;5.55;;;;;;;;;;5036457;28;20428;-81
2022/12/31 05:34:56;;;;;;;19.30;5.00;;;;;;;;;;5035988;28;20030;-81
2022/12/31 05:37:22;;;;;;;14.43;5.50;;;;;;;;;;5036455;28;20083;-81
2022/12/31 05:39:48;;;;;;;17.63;5.35;;;;;;;;;;5035615;28;20093;-81
2022/12/31 05:42:14;;;;;;;14.90;5.47;;;;;;;;;;5035894;28;20021;-81
2022/12/31 05:44:40;;;;;;;13.80;6.10;;;;;;;;;;5035914;28;20025;-80
2022/12/31 05:47:05;;;;;;;16.35;5.50;;;;;;;;;;5035606;28;20040;-80
2022/12/31 05:49:31;;;;;;;11.00;5.78;;;;;;;;;;5035312;28;20018;-80
2022/12/31 05:51:57;;;;;;;9.55;5.78;;;;;;;;;;5017523;28;20037;-80
2022/12/31 05:54:23;;;;;;;16.35;5.68;;;;;;;;;;5035492;28;20065;-80
2022/12/31 05:56:49;;;;;;;12.70;5.47;;;;;;;;;;5035416;28;20041;-80
2022/12/31 05:59:15;;;;;;;9.43;3.85;;;;;;;;;;5034788;28;20050;-80
2022/12/31 06:01:41;;;;;;;12.85;3.63;;;;;;;;;;5035102;28;20084;-80
2022/12/31 06:04:07;;;;;;;12.50;3.08;;;;;;;;;;5017445;28;20484;-80
2022/12/31 06:06:33;;;;;;;8.70;2.63;;;;;;;;;;5035356;28;20025;-81
2022/12/31 06:08:59;;;;;;;12.18;2.28;;;;;;;;;;5034225;28;20030;-81
2022/12/31 06:11:25;;;;;;;5.45;1.77;;;;;;;;;;5017651;28;20025;-80
2022/12/31 06:13:51;;;;;;;8.20;2.53;;;;;;;;;;5035672;28;20021;-80
2022/12/31 06:16:17;;;;;;;8.77;2.17;;;;;;;;;;5035173;28;20072;-81
2022/12/31 06:18:45;;;;;;;11.15;2.50;;;;;;;;;;5035543;28;20026;-81
2022/12/31 06:21:11;;;;;;;11.20;1.80;;;;;;;;;;5035735;28;20047;-81
2022/12/31 06:23:37;;;;;;;8.43;1.90;;;;;;;;;;5035798;28;20025;-80
2022/12/31 06:26:04;;;;;;;11.25;2.80;;;;;;;;;;5035049;28;20021;-80
2022/12/31 06:28:30;;;;;;;9.30;1.90;;;;;;;;;;5035105;28;20037;-80
2022/12/31 06:31:02;;;;;;;10.00;2.17;;;;;;;;;;5035139;28;20036;-80
2022/12/31 06:33:31;;;;;;;8.98;2.30;;;;;;;;;;5036343;28;20079;-80
2022/12/31 06:35:58;;;;;;;5.50;1.90;;;;;;;;;;5017852;28;20079;-80
2022/12/31 06:38:24;;;;;;;11.05;2.55;;;;;;;;;;5035182;28;20476;-80
2022/12/31 06:40:50;;;;;;;9.40;1.98;;;;;;;;;;5035182;28;20096;-80
2022/12/31 06:43:16;;;;;;;5.70;1.80;;;;;;;;;;5036099;28;20072;-80
2022/12/31 06:45:42;;;;;;;6.43;1.80;;;;;;;;;;5035850;28;20495;-80
2022/12/31 06:48:08;;;;;;;8.80;2.17;;;;;;;;;;5033979;28;20029;-81
2022/12/31 06:50:34;;;;;;;7.13;1.65;;;;;;;;;;5034778;28;20104;-81
2022/12/31 06:53:00;;;;;;;3.13;1.30;;;;;;;;;;5034824;28;20028;-80
2022/12/31 06:55:27;;;;;;;9.50;1.88;;;;;;;;;;5033963;28;20025;-80
2022/12/31 06:57:53;;;;;;;3.22;1.83;;;;;;;;;;5034339;28;20056;-80
2022/12/31 07:00:20;;;;;;;5.38;1.70;;;;;;;;;;5033551;28;20049;-80
2022/12/31 07:03:10;;;;;;;10.65;1.95;;;;;;;;;;5033931;28;20049;-80
2022/12/31 07:05:43;;;;;;;6.72;2.80;;;;;;;;;;5034476;28;20033;-80
2022/12/31 07:08:09;;;;;;;7.15;3.08;;;;;;;;;;5033975;28;20380;-80
2022/12/31 07:10:59;;;;;;;6.30;3.25;;;;;;;;;;5033648;28;20487;-80
2022/12/31 07:13:40;;;;;;;7.00;3.38;;;;;;;;;;5016726;28;20026;-80
2022/12/31 07:16:09;;;;;;;7.10;4.18;;;;;;;;;;5033609;28;20030;-80
2022/12/31 07:18:54;;;;;;;5.53;3.92;;;;;;;;;;5033576;28;20087;-80
2022/12/31 07:21:26;;;;;;;5.32;3.60;;;;;;;;;;5033703;28;20487;-80
2022/12/31 07:23:52;;;;;;;11.70;3.53;;;;;;;;;;5016866;28;20029;-80
2022/12/31 07:26:24;;;;;;;9.98;3.45;;;;;;;;;;5033990;28;20025;-79
2022/12/31 07:28:58;;;;;;;17.85;4.07;;;;;;;;;;5033536;28;20049;-79
2022/12/31 07:31:27;;;;;;;9.50;3.30;;;;;;;;;;5033919;28;20361;-79
2022/12/31 07:33:57;;;;;;;6.50;3.33;;;;;;;;;;5033772;28;20029;-79
2022/12/31 07:36:29;;;;;;;12.55;4.75;;;;;;;;;;5033685;28;20025;-78
2022/12/31 07:39:07;;;;;;;10.48;3.60;;;;;;;;;;5034232;28;20029;-79
2022/12/31 07:41:41;;;;;;;6.93;3.50;;;;;;;;;;5033719;28;20029;-79
2022/12/31 07:44:10;;;;;;;4.97;2.95;;;;;;;;;;5034211;28;20388;-79
2022/12/31 07:46:39;;;;;;;4.95;3.63;;;;;;;;;;5033881;28;20025;-79
2022/12/31 07:49:09;;;;;;;4.10;3.30;;;;;;;;;;5033712;28;20021;-79
2022/12/31 07:51:35;;;;;;;;;;;;;;;;;;5034360;28;20080;-79
2022/12/31 07:54:05;;;;;;;4.03;3.30;;;;;;;;;;5033991;28;19909;-79
2022/12/31 07:56:32;;;;;;;4.70;3.00;;;;;;;;;;5033916;28;20018;-79
2022/12/31 07:58:58;;;;;;;3.75;2.92;;;;;;;;;;5033949;28;20080;-79
2022/12/31 08:01:39;;;;;;;3.85;2.20;;;;;;;;;;5034202;28;20072;-78
2022/12/31 08:04:27;;;;;;;2.65;2.05;;;;;;;;;;5034761;28;20020;-79
2022/12/31 08:06:53;;;;;;;2.50;2.00;;;;;;;;;;5034455;28;20040;-79
2022/12/31 08:09:32;;;;;;;2.80;1.65;;;;;;;;;;5034148;28;20026;-79
2022/12/31 08:11:59;;;;;;;4.18;1.90;;;;;;;;;;5034181;28;20041;-79
2022/12/31 08:14:26;;;;;;;3.80;2.42;;;;;;;;;;5033967;28;20113;-78
2022/12/31 08:16:52;;;;;;;4.07;2.40;;;;;;;;;;5034151;28;20033;-78
2022/12/31 08:19:26;;;;;;;3.78;2.53;;;;;;;;;;5033951;28;20029;-78
2022/12/31 08:22:11;;;;;;;4.05;2.63;;;;;;;;;;5033554;28;20105;-78
2022/12/31 08:24:55;;;;;;;4.50;3.00;;;;;;;;;;5033802;28;20030;-78
2022/12/31 08:27:37;;;;;;;4.68;3.25;;;;;;;;;;5031650;28;20033;-78
2022/12/31 08:30:17;;;;;;;5.15;3.20;;;;;;;;;;5034078;28;20080;-78
2022/12/31 08:32:43;;;;;;;5.32;3.50;;;;;;;;;;5043486;28;20018;-78
2022/12/31 08:35:18;;;;;;;5.03;3.42;;;;;;;;;;5037529;28;20392;-79
2022/12/31 08:37:53;;;;;;;5.97;3.85;;;;;;;;;;5043950;28;20060;-79
2022/12/31 08:40:23;;;;;;;7.10;3.97;;;;;;;;;;5043278;28;20487;-78
2022/12/31 08:42:49;;;;;;;;;;;;;;;;;;5043527;28;20033;-78
2022/12/31 08:45:25;;;;;;;6.20;3.67;;;;;;;;;;5043684;28;19905;-78
2022/12/31 08:48:06;;;;;;;6.85;3.58;;;;;;;;;;5038986;28;20080;-79
2022/12/31 08:50:33;;;;;;;8.98;4.25;;;;;;;;;;5023744;28;20116;-78
2022/12/31 08:52:59;;;;;;;8.60;4.15;;;;;;;;;;5039470;28;20057;-78
2022/12/31 08:55:25;;;;;;;14.73;6.57;;;;;;;;;;5038613;28;20029;-78
2022/12/31 08:57:54;;;;;;;8.07;4.18;;;;;;;;;;5018628;28;20045;-78
2022/12/31 09:00:21;;;;;;;6.97;2.90;;;;;;;;;;5023191;28;20049;-78
2022/12/31 09:02:47;;;;;;;7.95;2.78;;;;;;;;;;5036894;28;20110;-78
2022/12/31 09:05:29;;;;;;;6.68;2.17;;;;;;;;;;5037188;28;20025;-78
2022/12/31 09:08:02;;;;;;;7.63;2.00;;;;;;;;;;5037409;28;20108;-79
2022/12/31 09:10:31;;;;;;;4.95;1.40;;;;;;;;;;5035481;28;20112;-78
2022/12/31 09:13:00;;;;;;;4.65;1.38;;;;;;;;;;5024853;28;20396;-78
2022/12/31 09:15:35;;;;;;;6.72;1.55;;;;;;;;;;5036653;28;20022;-78
2022/12/31 09:18:01;;;;;;;5.82;1.67;;;;;;;;;;5027628;28;20030;-78
2022/12/31 09:20:32;;;;;;;6.95;1.48;;;;;;;;;;5019449;28;20026;-79
2022/12/31 09:22:59;;;;;;;13.85;2.00;;;;;;;;;;4999293;28;20030;-78
2022/12/31 09:25:27;;;;;;;4.57;1.10;;;;;;;;;;5020166;28;20026;-78
2022/12/31 09:28:00;;;;;;;6.18;1.20;;;;;;;;;;5037765;28;20105;-78
2022/12/31 09:30:28;;;;;;;12.57;2.50;;;;;;;;;;5036054;28;20487;-78
2022/12/31 09:32:59;;;;;;;13.00;6.95;;;;;;;;;;5039084;28;20056;-78
2022/12/31 09:35:38;;;;;;;7.13;1.80;;;;;;;;;;5036105;28;20108;-81
2022/12/31 09:38:24;;;;;;;5.93;1.65;;;;;;;;;;5037145;28;20064;-81
2022/12/31 09:41:15;;;;;;;3.53;1.20;;;;;;;;;;5037065;28;20053;-82
2022/12/31 09:43:44;;;;;;;6.72;1.48;;;;;;;;;;5005352;28;20026;-82
2022/12/31 09:46:21;;;;;;;6.95;0.98;;;;;;;;;;5050040;28;20396;-81
2022/12/31 09:48:59;;;;;;;7.38;2.20;;;;;;;;;;5049107;28;20389;-82
2022/12/31 09:51:34;;;;;;;11.82;1.15;;;;;;;;;;5048616;28;20026;-82
2022/12/31 09:54:16;;;;;;;11.27;2.85;;;;;;;;;;5049272;28;20029;-82
2022/12/31 09:57:01;;;;;;;6.28;1.10;;;;;;;;;;5047628;28;20465;-82
2022/12/31 09:59:35;;;;;;;9.77;1.00;;;;;;;;;;5051179;28;20117;-82
2022/12/31 10:02:13;;;;;;;7.25;1.80;;;;;;;;;;5050523;28;20029;-81
2022/12/31 10:04:48;;;;;;;13.25;1.58;;;;;;;;;;5039290;28;20029;-82
2022/12/31 10:07:17;;;;;;;14.55;1.45;;;;;;;;;;5051091;28;20112;-82
2022/12/31 10:09:54;;;;;;;25.05;3.03;;;;;;;;;;5050642;28;20021;-81
2022/12/31 10:12:41;;;;;;;16.05;1.65;;;;;;;;;;5050354;28;20029;-81
2022/12/31 10:15:16;;;;;;;11.02;1.45;;;;;;;;;;5045218;28;20041;-81
2022/12/31 10:17:54;;;;;;;14.13;2.22;;;;;;;;;;5050443;28;20089;-82
2022/12/31 10:20:33;;;;;;;10.68;2.83;;;;;;;;;;5050621;28;20037;-82
2022/12/31 10:23:04;;;;;;;14.10;1.98;;;;;;;;;;5039203;28;20029;-82
2022/12/31 10:25:30;;;;;;;14.98;2.97;;;;;;;;;;5038156;28;20025;-82
2022/12/31 10:27:59;;;;;;;11.90;1.85;;;;;;;;;;5053668;28;20049;-82
2022/12/31 10:30:30;;;;;;;17.55;2.45;;;;;;;;;;5053222;28;20515;-82
2022/12/31 10:33:07;;;;;;;12.10;2.00;;;;;;;;;;5053150;28;20030;-82
2022/12/31 10:35:50;;;;;;;14.30;2.08;;;;;;;;;;5051701;28;20025;-82
2022/12/31 10:38:16;;;;;;;16.30;2.38;;;;;;;;;;5051862;28;20480;-82
2022/12/31 10:40:45;;;;;;;10.18;1.60;;;;;;;;;;5050955;28;20184;-82
2022/12/31 10:43:20;;;;;;;12.85;1.52;;;;;;;;;;5054230;28;20029;-81
2022/12/31 10:46:02;;;;;;;14.85;2.45;;;;;;;;;;5050955;28;20045;-81
2022/12/31 10:48:37;;;;;;;13.15;1.92;;;;;;;;;;5031706;28;20087;-81
2022/12/31 10:51:06;;;;;;;14.25;2.38;;;;;;;;;;5048173;28;20041;-82
2022/12/31 10:53:46;;;;;;;18.52;2.50;;;;;;;;;;5050699;28;20028;-81
2022/12/31 10:56:12;;;;;;;18.25;2.95;;;;;;;;;;5050968;28;20391;-82
2022/12/31 10:58:38;;;;;;;11.15;2.30;;;;;;;;;;5050403;28;20053;-83
2022/12/31 11:01:13;;;;;;;12.52;2.20;;;;;;;;;;5049720;28;20041;-82
2022/12/31 11:03:39;;;;;;;11.43;2.47;;;;;;;;;;5050786;28;20025;-82
2022/12/31 11:06:22;;;;;;;12.38;2.08;;;;;;;;;;5050346;28;20078;-82
2022/12/31 11:09:07;;;;;;;10.98;1.90;;;;;;;;;;5031889;28;20427;-83
2022/12/31 11:11:36;;;;;;;15.60;2.95;;;;;;;;;;5050962;28;20152;-82
2022/12/31 11:14:03;;;;;;;20.95;3.17;;;;;;;;;;5050252;28;20091;-83
2022/12/31 11:16:43;;;;;;;22.77;3.03;;;;;;;;;;5048859;28;20029;-82
2022/12/31 11:19:28;;;;;;;14.63;2.35;;;;;;;;;;5046717;28;20032;-83
2022/12/31 11:21:54;;;;;;;18.58;2.67;;;;;;;;;;5032343;28;20056;-82
2022/12/31 11:24:21;;;;;;;12.07;2.10;;;;;;;;;;5025762;28;20022;-82
2022/12/31 11:27:07;;;;;;;9.45;1.60;;;;;;;;;;5050149;28;20081;-83
2022/12/31 11:29:42;;;;;;;14.38;3.85;;;;;;;;;;5048946;28;20025;-83
2022/12/31 11:32:09;;;;;;;14.90;2.50;;;;;;;;;;5049838;28;20075;-83
2022/12/31 11:34:37;;;;;;;10.63;2.30;;;;;;;;;;5050239;28;20044;-83
2022/12/31 11:37:23;;;;;;;10.98;2.22;;;;;;;;;;5050521;28;20030;-83
2022/12/31 11:39:49;;;;;;;12.30;2.08;;;;;;;;;;5050534;28;20040;-83
2022/12/31 11:42:18;;;;;;;11.93;1.80;;;;;;;;;;5050276;28;20081;-83
2022/12/31 11:45:00;;;;;;;10.63;1.65;;;;;;;;;;5049178;28;20036;-83
2022/12/31 11:47:45;;;;;;;13.93;2.08;;;;;;;;;;5048586;28;20033;-83
2022/12/31 11:50:31;;;;;;;9.82;1.85;;;;;;;;;;5048450;28;20057;-83
2022/12/31 11:52:57;;;;;;;10.25;2.10;;;;;;;;;;5046620;28;20036;-83
2022/12/31 11:55:34;;;;;;;10.57;1.98;;;;;;;;;;5044622;28;20105;-81
2022/12/31 11:58:11;;;;;;;12.57;1.98;;;;;;;;;;5032967;28;20151;-82
2022/12/31 12:00:37;;;;;;;7.47;2.25;;;;;;;;;;5034401;28;20496;-83
2022/12/31 12:03:05;;;;;;;10.77;1.67;;;;;;;;;;5031986;28;20026;-83
2022/12/31 12:05:32;;;;;;;9.93;1.77;;;;;;;;;;5019917;28;20179;-82
2022/12/31 12:07:58;;;;;;;7.85;1.98;;;;;;;;;;5026390;28;20034;-82
2022/12/31 12:10:26;;;;;;;11.93;1.77;;;;;;;;;;5036229;28;20388;-82
2022/12/31 12:12:53;;;;;;;12.02;2.05;;;;;;;;;;5018618;28;20026;-82
2022/12/31 12:15:28;;;;;;;12.63;2.10;;;;;;;;;;5025470;28;20041;-82
2022/12/31 12:17:56;;;;;;;11.43;2.78;;;;;;;;;;5032022;28;20077;-82
2022/12/31 12:20:29;;;;;;;9.98;2.08;;;;;;;;;;5054198;28;20026;-82
2022/12/31 12:22:56;;;;;;;10.27;2.72;;;;;;;;;;5045570;28;20030;-82
2022/12/31 12:25:24;;;;;;;15.95;2.40;;;;;;;;;;5048539;28;20025;-83
2022/12/31 12:27:50;;;;;;;11.02;2.22;;;;;;;;;;5050021;28;20036;-83
2022/12/31 12:30:24;;;;;;;11.13;2.70;;;;;;;;;;5042109;28;20390;-83
2022/12/31 12:32:53;;;;;;;16.27;2.95;;;;;;;;;;5052713;28;20022;-83
2022/12/31 12:35:24;;;;;;;17.70;2.72;;;;;;;;;;5052921;28;20036;-83
2022/12/31 12:37:58;;;;;;;12.38;2.25;;;;;;;;;;5030258;28;20499;-83
2022/12/31 12:40:24;;;;;;;17.38;3.22;;;;;;;;;;5048927;28;20026;-82
2022/12/31 12:42:51;;;;;;;13.90;2.78;;;;;;;;;;5044368;28;20032;-83
2022/12/31 12:45:17;;;;;;;20.70;4.10;;;;;;;;;;5037577;28;20112;-83
2022/12/31 12:47:45;;;;;;;13.32;2.10;;;;;;;;;;5046119;28;20053;-83
2022/12/31 12:50:19;;;;;;;11.45;2.33;;;;;;;;;;5043423;28;20029;-82
2022/12/31 12:52:44;;;;;;;12.50;3.25;;;;;;;;;;5027232;28;20025;-82
2022/12/31 12:55:23;;;;;;;10.73;2.35;;;;;;;;;;5044310;28;20380;-82
2022/12/31 12:58:11;;;;;;;18.70;2.17;;;;;;;;;;5042515;28;20383;-82
2022/12/31 13:00:44;;;;;;;15.10;2.55;;;;;;;;;;5040534;28;20057;-83
2022/12/31 13:03:10;;;;;;;13.70;2.63;;;;;;;;;;5042305;28;20034;-82
2022/12/31 13:05:39;;;;;;;15.20;2.33;;;;;;;;;;5045983;28;20022;-83
2022/12/31 13:08:32;;;;;;;14.00;2.35;;;;;;;;;;5042684;28;20037;-83
2022/12/31 13:11:17;;;;;;;17.23;3.88;;;;;;;;;;5043675;28;20025;-83
2022/12/31 13:13:55;;;;;;;11.02;3.20;;;;;;;;;;5048424;28;20119;-84
2022/12/31 13:16:32;;;;;;;9.70;1.95;;;;;;;;;;5040891;28;20022;-83
2022/12/31 13:19:02;;;;;;;13.75;2.38;;;;;;;;;;5034995;28;20026;-83
2022/12/31 13:21:31;;;;;;;19.20;2.03;;;;;;;;;;5051166;28;20031;-83
2022/12/31 13:24:12;;;;;;;14.85;2.10;;;;;;;;;;5038640;28;20388;-83
2022/12/31 13:26:41;;;;;;;7.15;1.40;;;;;;;;;;5039255;28;20091;-83
2022/12/31 13:29:13;;;;;;;12.88;2.92;;;;;;;;;;5043564;28;20038;-83
2022/12/31 13:31:39;;;;;;;9.80;1.77;;;;;;;;;;5038983;28;20112;-82
2022/12/31 13:34:21;;;;;;;10.63;1.73;;;;;;;;;;5021608;28;20373;-82
2022/12/31 13:36:48;;;;;;;10.38;1.88;;;;;;;;;;5024881;28;20075;-82
2022/12/31 13:39:23;;;;;;;9.05;2.13;;;;;;;;;;5031726;28;20032;-83
2022/12/31 13:41:52;;;;;;;6.88;1.52;;;;;;;;;;5036029;28;20112;-82
2022/12/31 13:44:26;;;;;;;8.70;1.30;;;;;;;;;;5035532;28;20104;-82
2022/12/31 13:46:58;;;;;;;5.20;1.10;;;;;;;;;;5036550;28;20029;-81
2022/12/31 13:49:24;;;;;;;6.50;0.90;;;;;;;;;;5045905;28;20033;-82
2022/12/31 13:52:16;;;;;;;6.03;0.88;;;;;;;;;;5042597;28;20025;-82
2022/12/31 13:54:45;;;;;;;3.33;0.73;;;;;;;;;;5044320;28;20121;-82
2022/12/31 13:57:25;;;;;;;8.48;1.10;;;;;;;;;;5040971;28;20037;-82
2022/12/31 13:59:56;;;;;;;5.30;1.00;;;;;;;;;;5041095;28;20073;-82
2022/12/31 14:02:30;;;;;;;4.93;1.08;;;;;;;;;;5045382;28;20417;-82
2022/12/31 14:05:00;;;;;;;3.67;0.93;;;;;;;;;;5033022;28;20025;-82
2022/12/31 14:07:29;;;;;;;5.63;1.00;;;;;;;;;;5039225;28;20519;-83
2022/12/31 14:09:55;;;;;;;4.50;0.88;;;;;;;;;;5025053;28;20022;-82
2022/12/31 14:12:21;;;;;;;3.35;0.68;;;;;;;;;;5045244;28;19998;-82
2022/12/31 14:14:56;;;;;;;4.72;1.30;;;;;;;;;;5035505;28;20444;-82
2022/12/31 14:17:41;;;;;;;3.97;0.88;;;;;;;;;;5035595;28;20033;-82
2022/12/31 14:20:25;;;;;;;3.30;0.80;;;;;;;;;;5015886;28;20021;-82
2022/12/31 14:23:03;;;;;;;4.07;1.08;;;;;;;;;;5035919;28;20030;-82
2022/12/31 14:25:39;;;;;;;3.20;1.25;;;;;;;;;;5035947;28;20051;-82
2022/12/31 14:28:06;;;;;;;6.13;2.45;;;;;;;;;;5038881;28;20033;-82
2022/12/31 14:30:36;;;;;;;3.55;1.02;;;;;;;;;;5037675;28;20006;-82
2022/12/31 14:33:15;;;;;;;3.03;0.60;;;;;;;;;;5034105;28;20029;-82
2022/12/31 14:35:53;;;;;;;3.20;0.60;;;;;;;;;;5039168;28;20492;-82
2022/12/31 14:38:19;;;;;;;1.52;0.60;;;;;;;;;;5036346;28;20034;-82
2022/12/31 14:40:45;;;;;;;1.35;0.45;;;;;;;;;;5033420;28;20447;-82
2022/12/31 14:43:27;;;;;;;2.72;0.50;;;;;;;;;;5033611;28;20018;-82
2022/12/31 14:46:11;;;;;;;3.30;0.57;;;;;;;;;;5034440;28;20559;-82
2022/12/31 14:48:56;;;;;;;1.33;0.60;;;;;;;;;;5032681;28;20420;-82
2022/12/31 14:51:26;;;;;;;1.08;0.40;;;;;;;;;;5037424;28;20021;-82
2022/12/31 14:53:53;;;;;;;3.25;1.75;;;;;;;;;;5040302;28;20489;-82
2022/12/31 14:56:27;;;;;;;4.25;1.30;;;;;;;;;;5032500;28;20040;-82
2022/12/31 14:58:57;;;;;;;6.60;3.20;;;;;;;;;;5032613;28;20036;-82
2022/12/31 15:01:24;;;;;;;3.90;1.42;;;;;;;;;;5027888;28;20108;-82
2022/12/31 15:03:51;;;;;;;3.55;1.05;;;;;;;;;;5007482;28;20032;-82
2022/12/31 15:06:23;;;;;;;1.92;0.90;;;;;;;;;;5026470;28;20013;-82
2022/12/31 15:08:52;;;;;;;1.25;0.60;;;;;;;;;;5032842;28;20084;-82
2022/12/31 15:11:37;;;;;;;4.50;0.82;;;;;;;;;;5028783;28;20017;-82
2022/12/31 15:14:18;;;;;;;2.97;1.52;;;;;;;;;;5018284;28;20125;-82